Time;durP1;ratioP1;P1;durP2;ratioP2;P2;SDS_P1;SDS_P2;PMS_P1;PMS_P2;Temp;Humidity;BMP_temperature;BMP_pressure;BME280_temperature;BME280_humidity;BME280_pressure;Samples;Min_cycle;Max_cycle;Signal;HPM_P1;HPM_P2
2022/12/17 13:06:39;;;;;;;33.67;15.03;;;-0.60;99.90;;;;;;4996761;28;20440;-78
2022/12/17 13:09:22;;;;;;;37.47;20.60;;;0.10;99.90;;;;;;4995698;28;20449;-77
2022/12/17 13:11:50;;;;;;;37.97;16.80;;;0.50;99.90;;;;;;4995535;28;20453;-78
2022/12/17 13:14:22;;;;;;;31.57;16.47;;;0.20;99.90;;;;;;4994381;28;20448;-78
2022/12/17 13:16:54;;;;;;;36.77;15.47;;;0.20;99.90;;;;;;4995642;28;20448;-78
2022/12/17 13:19:34;;;;;;;24.80;13.87;;;0.20;99.90;;;;;;4995155;28;20500;-74
2022/12/17 13:22:10;;;;;;;25.57;14.50;;;;;;;;;;4995431;28;20983;-75
2022/12/17 13:24:37;;;;;;;31.93;16.53;;;;;;;;;;4995512;28;20471;-76
2022/12/17 13:27:05;;;;;;;33.87;17.57;;;1.10;99.90;;;;;;4995325;28;20442;-77
2022/12/17 13:29:35;;;;;;;31.43;17.10;;;1.70;99.90;;;;;;4994053;28;20453;-77
2022/12/17 13:32:21;;;;;;;39.00;16.50;;;1.30;99.90;;;;;;4995141;28;20455;-75
2022/12/17 13:35:06;;;;;;;28.03;15.43;;;;;;;;;;4995322;28;20445;-74
2022/12/17 13:37:40;;;;;;;33.10;17.00;;;;;;;;;;4994955;28;20456;-76
2022/12/17 13:40:17;;;;;;;31.43;15.90;;;;;;;;;;4995027;28;20860;-76
2022/12/17 13:42:46;;;;;;;30.97;16.90;;;1.40;99.90;;;;;;4994962;28;20464;-75
2022/12/17 13:45:16;;;;;;;41.27;17.20;;;;;;;;;;4975383;28;20828;-78
2022/12/17 13:47:43;;;;;;;39.07;18.43;;;;;;;;;;4995090;28;20463;-76
2022/12/17 13:50:20;;;;;;;35.63;18.83;;;1.00;99.90;;;;;;4998202;28;20449;-76
2022/12/17 13:52:47;;;;;;;37.03;18.00;;;;;;;;;;5003126;28;20483;-80
2022/12/17 13:55:19;;;;;;;34.03;19.40;;;0.70;99.90;;;;;;4994869;28;20464;-79
2022/12/17 13:57:48;;;;;;;24.10;14.80;;;0.90;99.90;;;;;;4994792;28;20792;-80
2022/12/17 14:00:25;;;;;;;25.93;14.67;;;0.90;99.90;;;;;;4993276;28;21012;-77
2022/12/17 14:02:52;;;;;;;31.97;15.97;;;;;;;;;;4994053;28;20449;-79
2022/12/17 14:05:25;;;;;;;37.20;18.17;;;0.00;99.90;;;;;;4994619;28;20449;-78
2022/12/17 14:07:53;;;;;;;37.80;16.33;;;-0.10;98.30;;;;;;4994453;28;20792;-78
2022/12/17 14:10:20;;;;;;;46.20;20.90;;;-0.30;99.90;;;;;;4994616;28;20467;-78
2022/12/17 14:12:47;;;;;;;45.17;22.07;;;;;;;;;;4994580;28;20460;-79
2022/12/17 14:15:25;;;;;;;43.53;20.13;;;-0.30;99.50;;;;;;4993237;28;20449;-77
2022/12/17 14:17:53;;;;;;;36.70;19.73;;;-0.40;99.90;;;;;;4994244;28;20484;-78
2022/12/17 14:20:23;;;;;;;48.83;22.60;;;-0.40;99.90;;;;;;4994357;28;20492;-77
2022/12/17 14:22:52;;;;;;;41.40;21.00;;;-0.30;99.90;;;;;;4994306;28;20463;-79
2022/12/17 14:25:21;;;;;;;57.17;24.33;;;-0.30;99.70;;;;;;4994182;28;20460;-78
2022/12/17 14:27:54;;;;;;;43.60;23.20;;;-0.50;97.30;;;;;;4994294;28;20449;-77
2022/12/17 14:30:25;;;;;;;46.87;22.13;;;-0.80;99.90;;;;;;4992931;28;20940;-77
2022/12/17 14:32:52;;;;;;;44.13;21.30;;;;;;;;;;4994459;28;20449;-77
2022/12/17 14:35:28;;;;;;;51.90;22.87;;;-1.60;99.90;;;;;;4994032;28;21058;-78
2022/12/17 14:37:55;;;;;;;41.57;22.53;;;;;;;;;;4994171;28;20452;-77
2022/12/17 14:40:24;;;;;;;42.13;20.23;;;-1.70;99.90;;;;;;4994031;28;20503;-79
2022/12/17 14:42:51;;;;;;;49.50;23.17;;;;;;;;;;4993962;28;20456;-78
2022/12/17 14:45:25;;;;;;;44.87;21.80;;;-2.20;99.90;;;;;;4992627;28;20462;-81
2022/12/17 14:47:56;;;;;;;47.70;23.97;;;-2.50;99.90;;;;;;4994800;28;20463;-78
2022/12/17 14:50:28;;;;;;;44.03;21.67;;;-3.00;99.90;;;;;;4994436;28;20456;-78
2022/12/17 14:52:55;;;;;;;48.37;24.53;;;-3.30;99.90;;;;;;4993887;28;20502;-77
2022/12/17 14:55:32;;;;;;;44.03;22.23;;;-3.50;99.90;;;;;;4993740;28;20460;-79
2022/12/17 14:58:17;;;;;;;41.17;19.80;;;-3.80;99.90;;;;;;4993808;28;20456;-79
2022/12/17 15:00:47;;;;;;;38.17;20.73;;;-3.90;99.90;;;;;;4992327;28;20498;-77
2022/12/17 15:03:22;;;;;;;34.97;17.40;;;-4.10;99.90;;;;;;4993686;28;20454;-78
2022/12/17 15:05:52;;;;;;;49.50;23.90;;;-4.20;99.90;;;;;;4993782;28;20461;-79
2022/12/17 15:08:20;;;;;;;32.93;17.47;;;-4.30;99.90;;;;;;4994037;28;20450;-79
2022/12/17 15:10:47;;;;;;;35.63;18.47;;;;;;;;;;4993807;28;20460;-77
2022/12/17 15:13:14;;;;;;;52.03;18.47;;;;;;;;;;4993720;28;20462;-77
2022/12/17 15:15:41;;;;;;;48.97;20.27;;;;;;;;;;4996501;28;20449;-77
2022/12/17 15:18:10;;;;;;;33.97;18.47;;;;;;;;;;4997680;28;20491;-76
2022/12/17 15:20:37;;;;;;;40.30;20.63;;;;;;;;;;4997454;28;21040;-77
2022/12/17 15:23:04;;;;;;;43.77;24.43;;;;;;;;;;4997612;28;20461;-77
2022/12/17 15:25:31;;;;;;;41.83;18.53;;;;;;;;;;4997506;28;20482;-78
2022/12/17 15:27:58;;;;;;;44.47;25.00;;;;;;;;;;4997644;28;20445;-77
2022/12/17 15:30:25;;;;;;;36.97;18.60;;;;;;;;;;4996259;28;20449;-76
2022/12/17 15:32:52;;;;;;;44.97;22.00;;;;;;;;;;4997643;28;20450;-77
2022/12/17 15:35:20;;;;;;;35.17;19.03;;;-5.40;99.90;;;;;;4997397;28;20459;-78
2022/12/17 15:37:47;;;;;;;46.60;20.67;;;;;;;;;;4997442;28;20956;-78
2022/12/17 15:40:15;;;;;;;36.67;18.60;;;;;;;;;;4997194;28;21035;-76
2022/12/17 15:45:26;;;;;;;36.87;16.23;;;;;;;;;;4996037;28;20804;-79
2022/12/17 15:47:54;;;;;;;32.50;14.53;;;;;;;;;;4997516;28;20453;-76
2022/12/17 15:50:22;;;;;;;29.67;14.63;;;;;;;;;;4997170;28;20460;-76
2022/12/17 15:52:49;;;;;;;34.67;15.97;;;;;;;;;;4997523;28;20461;-77
2022/12/17 15:55:16;;;;;;;38.73;17.30;;;;;;;;;;4997063;28;20443;-76
2022/12/17 15:57:44;;;;;;;28.63;14.00;;;;;;;;;;4997132;28;20449;-76
2022/12/17 16:00:12;;;;;;;40.70;18.20;;;-6.40;99.90;;;;;;4995749;28;20492;-76
2022/12/17 16:02:39;;;;;;;37.60;17.87;;;;;;;;;;4997103;28;20485;-76
2022/12/17 16:05:06;;;;;;;30.87;15.17;;;;;;;;;;4997090;28;20453;-77
2022/12/17 16:07:35;;;;;;;32.00;15.50;;;-6.50;99.90;;;;;;4997392;28;20440;-75
2022/12/17 16:10:03;;;;;;;27.20;15.40;;;;;;;;;;4997120;28;20461;-75
2022/12/17 16:12:30;;;;;;;36.70;18.17;;;;;;;;;;4998079;28;20456;-76
2022/12/17 16:14:57;;;;;;;33.27;15.93;;;;;;;;;;4999682;28;20456;-76
2022/12/17 16:17:24;;;;;;;25.77;14.80;;;;;;;;;;5001734;28;20489;-78
2022/12/17 16:19:51;;;;;;;29.60;16.23;;;;;;;;;;4996781;28;20456;-77
2022/12/17 16:22:18;;;;;;;30.10;15.70;;;;;;;;;;4996618;28;20434;-76
2022/12/17 16:24:46;;;;;;;32.27;17.63;;;-6.70;99.90;;;;;;4996280;28;20468;-76
2022/12/17 16:27:13;;;;;;;44.40;17.10;;;;;;;;;;4995843;28;20971;-78
2022/12/17 16:29:40;;;;;;;37.43;17.70;;;;;;;;;;4995134;28;20445;-77
2022/12/17 16:32:07;;;;;;;31.13;16.60;;;;;;;;;;4996348;28;20452;-76
2022/12/17 16:34:34;;;;;;;31.37;14.90;;;;;;;;;;4996449;28;20453;-76
2022/12/17 16:37:02;;;;;;;54.10;20.37;;;;;;;;;;4996318;28;20458;-76
2022/12/17 16:39:29;;;;;;;48.03;17.40;;;;;;;;;;4996257;28;20447;-76
2022/12/17 16:41:57;;;;;;;31.23;14.80;;;;;;;;;;4995824;28;20497;-76
2022/12/17 16:44:24;;;;;;;32.13;16.67;;;;;;;;;;4994692;28;20452;-76
2022/12/17 16:46:51;;;;;;;34.60;17.43;;;;;;;;;;4995868;28;20461;-78
2022/12/17 16:49:21;;;;;;;36.00;17.53;;;-7.10;99.90;;;;;;4995935;28;20499;-76
2022/12/17 16:51:50;;;;;;;32.43;15.20;;;-7.10;99.90;;;;;;4995715;28;20444;-77
2022/12/17 16:54:19;;;;;;;36.37;18.27;;;-7.20;99.90;;;;;;4995796;28;20428;-76
2022/12/17 16:56:46;;;;;;;28.37;15.80;;;;;;;;;;4995779;28;20455;-77
2022/12/17 16:59:15;;;;;;;41.43;18.30;;;-7.20;99.90;;;;;;4994486;28;20984;-76
2022/12/17 17:01:44;;;;;;;30.77;17.07;;;-7.30;99.90;;;;;;4995610;28;21037;-76
2022/12/17 17:04:13;;;;;;;34.07;15.30;;;-7.30;99.90;;;;;;4995582;28;20460;-76
2022/12/17 17:06:41;;;;;;;27.23;13.87;;;-7.30;99.90;;;;;;4995682;28;20766;-78
2022/12/17 17:09:08;;;;;;;35.27;16.37;;;;;;;;;;4995492;28;20507;-77
2022/12/17 17:11:35;;;;;;;48.60;16.00;;;;;;;;;;4995481;28;20456;-78
2022/12/17 17:14:03;;;;;;;26.40;16.90;;;;;;;;;;4994145;28;20965;-76
2022/12/17 17:16:32;;;;;;;32.47;16.50;;;;;;;;;;4995366;28;20459;-78
2022/12/17 17:18:59;;;;;;;41.33;16.20;;;;;;;;;;4995223;28;20800;-77
2022/12/17 17:21:29;;;;;;;30.90;16.70;;;-7.40;99.90;;;;;;4995187;28;20518;-76
2022/12/17 17:23:58;;;;;;;36.53;18.77;;;-7.40;99.90;;;;;;4995291;28;20449;-77
2022/12/17 17:26:26;;;;;;;31.63;16.67;;;-7.30;99.90;;;;;;4995244;28;20805;-78
2022/12/17 17:28:53;;;;;;;47.50;19.13;;;;;;;;;;4994381;28;20507;-76
2022/12/17 17:31:21;;;;;;;36.53;16.63;;;;;;;;;;4995212;28;20456;-78
2022/12/17 17:33:50;;;;;;;31.63;15.87;;;;;;;;;;4995137;28;20445;-78
2022/12/17 17:36:19;;;;;;;38.80;16.50;;;-7.60;99.90;;;;;;4994807;28;20444;-76
2022/12/17 17:38:47;;;;;;;43.00;17.73;;;-7.70;99.90;;;;;;4994214;28;20528;-78
2022/12/17 17:41:16;;;;;;;26.13;13.47;;;-7.70;99.90;;;;;;4994969;28;20513;-79
2022/12/17 17:43:43;;;;;;;24.77;12.73;;;;;;;;;;4994908;28;20435;-77
2022/12/17 17:46:12;;;;;;;24.70;16.13;;;-7.70;99.90;;;;;;4993516;28;20460;-78
2022/12/17 17:48:39;;;;;;;35.97;14.80;;;;;;;;;;4994690;28;20449;-79
2022/12/17 17:51:11;;;;;;;39.97;17.27;;;-7.80;99.90;;;;;;4994641;28;20469;-78
2022/12/17 17:53:38;;;;;;;25.73;14.03;;;;;;;;;;4994771;28;20451;-79
2022/12/17 17:56:13;;;;;;;31.00;15.57;;;-7.90;99.90;;;;;;4994655;28;20458;-78
2022/12/17 17:58:42;;;;;;;29.03;15.37;;;-7.90;99.90;;;;;;4994605;28;20968;-77
2022/12/17 18:01:10;;;;;;;34.37;15.47;;;-8.00;99.90;;;;;;4993168;28;20484;-77
2022/12/17 18:03:37;;;;;;;30.50;14.33;;;;;;;;;;4994521;28;20419;-78
2022/12/17 18:06:04;;;;;;;30.87;16.53;;;;;;;;;;4994436;28;20456;-77
2022/12/17 18:08:33;;;;;;;37.27;16.87;;;-8.10;99.90;;;;;;4994423;28;20446;-76
2022/12/17 18:11:01;;;;;;;29.97;17.30;;;-8.10;99.90;;;;;;4994412;28;20457;-79
2022/12/17 18:16:13;;;;;;;25.10;14.00;;;-8.10;99.90;;;;;;4993237;28;20415;-78
2022/12/17 18:18:41;;;;;;;45.60;22.27;;;;;;;;;;4994172;28;20844;-78
2022/12/17 18:21:11;;;;;;;38.70;18.23;;;-8.20;99.90;;;;;;4994152;28;20590;-78
2022/12/17 18:23:40;;;;;;;34.30;18.50;;;-8.30;99.90;;;;;;4994130;28;20822;-76
2022/12/17 18:26:08;;;;;;;30.03;17.17;;;-8.30;99.90;;;;;;4994065;28;20436;-75
2022/12/17 18:28:35;;;;;;;46.00;17.37;;;;;;;;;;4994062;28;20424;-77
2022/12/17 18:31:06;;;;;;;25.63;15.97;;;;;;;;;;4992816;28;20433;-77
2022/12/17 18:33:34;;;;;;;41.97;14.03;;;;;;;;;;4994026;28;20968;-76
2022/12/17 18:36:01;;;;;;;36.03;17.97;;;;;;;;;;4993967;28;20429;-76
2022/12/17 18:38:28;;;;;;;26.33;15.30;;;;;;;;;;4993994;28;20754;-76
2022/12/17 18:40:56;;;;;;;34.10;16.20;;;-8.10;99.90;;;;;;4993771;28;20467;-78
2022/12/17 18:43:22;;;;;;;36.07;16.90;;;;;;;;;;4993823;28;20449;-78
2022/12/17 18:45:50;;;;;;;40.30;16.20;;;;;;;;;;4992644;28;20426;-79
2022/12/17 18:48:17;;;;;;;27.03;16.10;;;;;;;;;;4993579;28;20437;-77
2022/12/17 18:50:44;;;;;;;35.03;16.80;;;;;;;;;;4993759;28;20800;-76
2022/12/17 18:53:11;;;;;;;29.67;15.97;;;;;;;;;;4993730;28;20440;-76
2022/12/17 18:55:39;;;;;;;41.40;17.13;;;;;;;;;;4993764;28;20450;-76
2022/12/17 18:58:08;;;;;;;33.70;17.83;;;-7.70;99.90;;;;;;4993633;28;20938;-78
2022/12/17 19:00:35;;;;;;;27.43;14.50;;;;;;;;;;4992428;28;20424;-78
2022/12/17 19:03:03;;;;;;;34.37;16.10;;;;;;;;;;4993578;28;20470;-77
2022/12/17 19:05:30;;;;;;;38.53;18.73;;;;;;;;;;4993578;28;20461;-78
2022/12/17 19:07:57;;;;;;;40.33;19.33;;;;;;;;;;4993456;28;20486;-77
2022/12/17 19:10:24;;;;;;;38.10;15.73;;;;;;;;;;4993570;28;20815;-79
2022/12/17 19:12:51;;;;;;;24.10;15.30;;;;;;;;;;4993567;28;20441;-76
2022/12/17 19:15:20;;;;;;;39.80;18.93;;;;;;;;;;4992274;28;20440;-76
2022/12/17 19:17:49;;;;;;;43.10;19.90;;;;;;;;;;4993371;28;20458;-77
2022/12/17 19:20:16;;;;;;;36.63;20.07;;;;;;;;;;4993496;28;20925;-77
2022/12/17 19:22:43;;;;;;;25.57;16.20;;;;;;;;;;4993330;28;21035;-79
2022/12/17 19:25:11;;;;;;;43.70;20.17;;;;;;;;;;4993780;28;20454;-77
2022/12/17 19:27:38;;;;;;;33.30;18.93;;;;;;;;;;4993454;28;20479;-78
2022/12/17 19:30:05;;;;;;;39.83;16.97;;;;;;;;;;4992132;28;20916;-79
2022/12/17 19:32:34;;;;;;;37.97;17.70;;;-8.50;99.90;;;;;;4993410;28;20454;-79
2022/12/17 19:35:01;;;;;;;41.50;18.40;;;;;;;;;;4993159;28;20450;-79
2022/12/17 19:37:28;;;;;;;41.87;18.67;;;;;;;;;;4993278;28;20423;-79
2022/12/17 19:39:55;;;;;;;34.30;15.80;;;;;;;;;;4993498;28;20819;-79
2022/12/17 19:42:26;;;;;;;37.93;16.13;;;;;;;;;;4993154;28;20482;-79
2022/12/17 19:44:53;;;;;;;36.40;14.27;;;;;;;;;;4992043;28;20485;-79
2022/12/17 19:47:21;;;;;;;34.40;15.83;;;;;;;;;;4993340;28;20992;-79
2022/12/17 19:49:49;;;;;;;43.60;17.97;;;;;;;;;;4993204;28;20448;-78
2022/12/17 19:52:16;;;;;;;34.87;18.30;;;;;;;;;;4993152;28;20483;-77
2022/12/17 19:54:43;;;;;;;45.93;16.23;;;;;;;;;;4993109;28;20429;-77
2022/12/17 19:57:10;;;;;;;28.27;15.23;;;;;;;;;;4993158;28;20460;-79
2022/12/17 19:59:37;;;;;;;35.17;17.77;;;;;;;;;;4991918;28;20457;-76
2022/12/17 20:02:04;;;;;;;36.10;18.53;;;;;;;;;;4995964;28;21045;-78
2022/12/17 20:04:32;;;;;;;31.43;15.07;;;;;;;;;;4996681;28;20435;-79
2022/12/17 20:07:00;;;;;;;26.17;13.07;;;-8.90;99.90;;;;;;4996692;28;20445;-78
2022/12/17 20:09:27;;;;;;;28.83;13.27;;;;;;;;;;4996775;28;20487;-78
2022/12/17 20:11:54;;;;;;;24.47;14.00;;;;;;;;;;4996653;28;20428;-79
2022/12/17 20:14:30;;;;;;;29.47;16.77;;;-8.90;99.90;;;;;;4995271;28;20457;-79
2022/12/17 20:16:59;;;;;;;37.83;20.03;;;-8.90;99.90;;;;;;4996426;28;20454;-78
2022/12/17 20:19:29;;;;;;;18.30;10.20;;;;;;;;;;4996640;28;20823;-79
2022/12/17 20:21:57;;;;;;;28.80;13.33;;;;;;;;;;4996390;28;20467;-78
2022/12/17 20:24:25;;;;;;;31.50;13.60;;;;;;;;;;4996399;28;20504;-80
2022/12/17 20:26:53;;;;;;;26.43;15.50;;;-8.90;99.90;;;;;;4996337;28;20424;-79
2022/12/17 20:29:21;;;;;;;30.77;16.00;;;;;;;;;;4995195;28;20423;-79
2022/12/17 20:31:48;;;;;;;23.50;12.60;;;;;;;;;;4996297;28;20821;-78
2022/12/17 20:34:16;;;;;;;27.73;13.13;;;-9.00;99.90;;;;;;4996268;28;20453;-79
2022/12/17 20:36:43;;;;;;;36.20;13.63;;;;;;;;;;4996244;28;20427;-79
2022/12/17 20:39:11;;;;;;;21.27;12.83;;;;;;;;;;4996094;28;20428;-79
2022/12/17 20:41:40;;;;;;;27.23;14.70;;;;;;;;;;4995966;28;20475;-79
2022/12/17 20:44:10;;;;;;;33.23;15.77;;;-9.10;99.90;;;;;;4994845;28;20459;-79
2022/12/17 20:46:37;;;;;;;23.43;13.07;;;;;;;;;;4995951;28;20428;-79
2022/12/17 20:49:05;;;;;;;31.30;11.57;;;-9.20;99.90;;;;;;4995871;28;20424;-79
2022/12/17 20:51:32;;;;;;;30.87;13.33;;;;;;;;;;4996056;28;20955;-79
2022/12/17 20:54:00;;;;;;;27.77;14.40;;;-9.30;99.90;;;;;;4995872;28;20435;-78
2022/12/17 20:56:31;;;;;;;36.53;15.93;;;-9.30;99.90;;;;;;4995707;28;20541;-79
2022/12/17 20:59:02;;;;;;;28.03;15.30;;;-9.30;99.90;;;;;;4994416;28;20424;-79
2022/12/17 21:01:29;;;;;;;25.67;13.23;;;;;;;;;;4995738;28;20465;-79
2022/12/17 21:03:57;;;;;;;35.70;12.70;;;-9.30;99.90;;;;;;4995720;28;20831;-78
2022/12/17 21:06:25;;;;;;;25.47;13.47;;;-9.30;99.90;;;;;;4995634;28;20452;-77
2022/12/17 21:08:54;;;;;;;34.83;14.63;;;-9.40;99.90;;;;;;4995544;28;20464;-76
2022/12/17 21:11:24;;;;;;;30.47;13.80;;;-9.30;99.90;;;;;;4995413;28;20452;-78
2022/12/17 21:13:51;;;;;;;20.80;13.20;;;;;;;;;;4995259;28;20435;-77
2022/12/17 21:16:21;;;;;;;21.80;12.97;;;-9.30;99.90;;;;;;4995079;28;20435;-78
2022/12/17 21:18:49;;;;;;;15.47;12.87;;;;;;;;;;4995417;28;20477;-76
2022/12/17 21:21:18;;;;;;;30.13;13.70;;;-9.30;99.90;;;;;;4995306;28;21019;-78
2022/12/17 21:23:45;;;;;;;22.17;14.00;;;-9.30;99.90;;;;;;4995177;28;20824;-78
2022/12/17 21:26:14;;;;;;;26.67;14.67;;;-9.30;99.90;;;;;;4995251;28;20446;-78
2022/12/17 21:28:43;;;;;;;20.77;11.93;;;;;;;;;;4995219;28;20465;-76
2022/12/17 21:31:16;;;;;;;23.30;12.37;;;-9.40;99.90;;;;;;4993821;28;20944;-78
2022/12/17 21:33:45;;;;;;;40.77;16.83;;;;;;;;;;4995166;28;20873;-79
2022/12/17 21:36:12;;;;;;;23.03;13.27;;;;;;;;;;4995058;28;20482;-79
2022/12/17 21:38:40;;;;;;;27.37;13.27;;;;;;;;;;4995316;28;20420;-79
2022/12/17 21:41:07;;;;;;;33.97;13.97;;;;;;;;;;4995090;28;20424;-79
2022/12/17 21:43:35;;;;;;;27.33;12.43;;;;;;;;;;4995239;28;20471;-78
2022/12/17 21:46:03;;;;;;;34.23;15.83;;;;;;;;;;4993728;28;20428;-78
2022/12/17 21:48:30;;;;;;;30.63;17.37;;;;;;;;;;4994645;28;20457;-79
2022/12/17 21:50:58;;;;;;;36.23;16.97;;;-9.50;99.90;;;;;;4994761;28;20481;-78
2022/12/17 21:53:25;;;;;;;26.43;13.60;;;;;;;;;;4994761;28;20428;-79
2022/12/17 21:55:52;;;;;;;37.40;17.27;;;;;;;;;;4994719;28;20781;-79
2022/12/17 21:58:20;;;;;;;36.33;18.07;;;;;;;;;;4994623;28;20519;-79
2022/12/17 22:00:48;;;;;;;51.03;19.57;;;;;;;;;;4993405;28;20464;-79
2022/12/17 22:03:15;;;;;;;36.53;18.53;;;;;;;;;;4994331;28;20475;-79
2022/12/17 22:05:42;;;;;;;37.33;15.57;;;;;;;;;;4994530;28;20819;-78
2022/12/17 22:08:11;;;;;;;25.03;10.60;;;;;;;;;;4994544;28;20424;-79
2022/12/17 22:10:41;;;;;;;26.53;14.53;;;-9.50;99.90;;;;;;4994397;28;20540;-78
2022/12/17 22:15:53;;;;;;;19.90;11.47;;;;;;;;;;4993046;28;20407;-79
2022/12/17 22:18:20;;;;;;;27.43;13.43;;;;;;;;;;4994196;28;20485;-78
2022/12/17 22:20:57;;;;;;;22.63;10.17;;;-9.50;99.90;;;;;;4994554;28;20428;-78
2022/12/17 22:23:25;;;;;;;24.63;16.27;;;;;;;;;;4993604;28;20497;-79
2022/12/17 22:25:52;;;;;;;90.30;28.37;;;;;;;;;;4994087;28;20428;-78
2022/12/17 22:28:19;;;;;;;29.93;13.77;;;;;;;;;;4993995;28;20931;-78
2022/12/17 22:33:31;;;;;;;19.00;7.20;;;;;;;;;;4994132;28;20434;-79
2022/12/17 22:36:00;;;;;;;18.43;10.90;;;;;;;;;;4994312;28;20424;-77
2022/12/17 22:38:29;;;;;;;24.50;12.40;;;;;;;;;;4993995;28;20419;-76
2022/12/17 22:41:04;;;;;;;26.20;11.97;;;-9.70;99.90;;;;;;4994279;28;20421;-76
2022/12/17 22:43:31;;;;;;;16.97;11.00;;;;;;;;;;4993864;28;20479;-76
2022/12/17 22:46:02;;;;;;;24.07;12.03;;;-9.70;99.90;;;;;;4992860;28;20436;-76
2022/12/17 22:48:29;;;;;;;28.17;12.83;;;;;;;;;;4993927;28;20442;-76
2022/12/17 22:50:56;;;;;;;23.03;10.27;;;;;;;;;;4993777;28;20524;-76
2022/12/17 22:53:24;;;;;;;15.50;8.20;;;;;;;;;;4993692;28;20517;-76
2022/12/17 22:55:52;;;;;;;15.27;8.40;;;;;;;;;;4993977;28;20434;-77
2022/12/17 22:58:19;;;;;;;19.60;10.47;;;;;;;;;;4993960;28;20426;-76
2022/12/17 23:00:46;;;;;;;15.80;9.10;;;;;;;;;;4992500;28;20435;-77
2022/12/17 23:03:13;;;;;;;23.87;12.00;;;;;;;;;;4993937;28;20470;-76
2022/12/17 23:05:40;;;;;;;24.10;12.13;;;;;;;;;;4993727;28;20910;-76
2022/12/17 23:08:07;;;;;;;23.47;12.20;;;;;;;;;;4993907;28;20445;-76
2022/12/17 23:10:35;;;;;;;30.33;9.63;;;;;;;;;;4993881;28;20434;-77
2022/12/17 23:13:03;;;;;;;22.03;10.60;;;;;;;;;;4993722;28;20456;-76
2022/12/17 23:15:33;;;;;;;17.03;9.37;;;-9.90;99.90;;;;;;4992500;28;20942;-77
2022/12/17 23:18:01;;;;;;;13.70;8.70;;;-10.00;99.90;;;;;;4993655;28;20487;-76
2022/12/17 23:20:30;;;;;;;16.03;9.37;;;-10.00;99.90;;;;;;4993625;28;20944;-78
2022/12/17 23:22:58;;;;;;;16.93;8.33;;;;;;;;;;4993776;28;20822;-77
2022/12/17 23:25:25;;;;;;;18.33;9.47;;;;;;;;;;5001270;28;20428;-75
2022/12/17 23:27:52;;;;;;;26.73;12.33;;;;;;;;;;5007398;28;20457;-76
2022/12/17 23:30:21;;;;;;;13.80;8.90;;;-9.90;99.90;;;;;;4992563;28;20457;-78
2022/12/17 23:32:49;;;;;;;25.87;10.60;;;;;;;;;;4993634;28;20450;-77
2022/12/17 23:35:16;;;;;;;16.20;9.33;;;;;;;;;;4993685;28;20481;-76
2022/12/17 23:37:43;;;;;;;18.93;9.27;;;;;;;;;;4997320;28;20431;-77
2022/12/17 23:40:11;;;;;;;16.47;10.33;;;-10.00;99.90;;;;;;4997265;28;20452;-78
2022/12/17 23:42:38;;;;;;;23.70;9.50;;;;;;;;;;4997165;28;20504;-78
2022/12/17 23:45:06;;;;;;;25.23;12.53;;;-10.00;99.90;;;;;;4995946;28;20460;-79
2022/12/17 23:47:35;;;;;;;22.20;10.00;;;-10.00;99.90;;;;;;4997009;28;20429;-76
2022/12/17 23:50:02;;;;;;;28.83;11.47;;;;;;;;;;4997017;28;20452;-77
2022/12/17 23:52:29;;;;;;;21.07;11.43;;;;;;;;;;4997135;28;20457;-76
2022/12/17 23:54:56;;;;;;;26.70;14.37;;;;;;;;;;4997187;28;20533;-79
2022/12/17 23:57:23;;;;;;;25.40;11.60;;;;;;;;;;4998072;28;20456;-76
2022/12/17 23:59:50;;;;;;;19.67;11.47;;;;;;;;;;4995573;28;20444;-77
